createdAt,value
2023-10-27T00:00:51.294Z,110.70
2023-10-27T00:03:19.301Z,112.17
2023-10-27T00:05:47.297Z,136.93
2023-10-27T00:08:15.672Z,99.87
2023-10-27T00:10:43.664Z,117.43
2023-10-27T00:13:11.607Z,108.83
2023-10-27T00:15:39.651Z,123.30
2023-10-27T00:18:09.004Z,105.47
2023-10-27T00:20:36.933Z,128.87
2023-10-27T00:23:04.923Z,104.97
2023-10-27T00:25:32.940Z,98.67
2023-10-27T00:28:01.018Z,99.20
2023-10-27T00:30:29.026Z,83.70
2023-10-27T00:32:57.047Z,105.73
2023-10-27T00:35:26.550Z,91.10
2023-10-27T00:37:54.540Z,89.93
2023-10-27T00:40:23.132Z,132.73
2023-10-27T00:42:51.187Z,114.03
2023-10-27T00:45:19.597Z,111.47
2023-10-27T00:47:48.041Z,134.90
2023-10-27T00:50:16.194Z,133.83
2023-10-27T00:52:45.543Z,127.20
2023-10-27T00:55:13.791Z,105.70
2023-10-27T00:57:43.684Z,140.50
2023-10-27T01:00:13.143Z,124.13
2023-10-27T01:02:41.233Z,132.07
2023-10-27T01:05:09.976Z,139.87
2023-10-27T01:07:39.369Z,156.37
2023-10-27T01:10:09.954Z,103.93
2023-10-27T01:12:37.901Z,138.87
2023-10-27T01:15:06.482Z,110.80
2023-10-27T01:17:34.502Z,130.40
2023-10-27T01:20:02.571Z,125.77
2023-10-27T01:22:30.963Z,130.53
2023-10-27T01:25:00.384Z,128.47
2023-10-27T01:27:28.435Z,140.13
2023-10-27T01:29:56.348Z,122.33
2023-10-27T01:32:24.320Z,132.97
2023-10-27T01:34:52.771Z,128.60
2023-10-27T01:37:20.810Z,148.60
2023-10-27T01:39:49.500Z,132.60
2023-10-27T01:42:18.857Z,123.37
2023-10-27T01:44:46.764Z,139.47
2023-10-27T01:47:14.690Z,139.27
2023-10-27T01:49:42.840Z,121.40
2023-10-27T01:52:10.933Z,163.80
2023-10-27T01:54:38.888Z,136.57
2023-10-27T01:57:06.823Z,185.50
2023-10-27T01:59:36.118Z,145.47
2023-10-27T02:02:04.170Z,166.90
2023-10-27T02:04:36.725Z,182.57
2023-10-27T02:07:05.760Z,145.20
2023-10-27T02:09:33.725Z,156.90
2023-10-27T02:12:01.763Z,177.63
2023-10-27T02:14:29.718Z,151.70
2023-10-27T02:16:58.989Z,134.53
2023-10-27T02:19:27.176Z,129.33
2023-10-27T02:21:55.210Z,155.20
2023-10-27T02:24:23.283Z,160.23
2023-10-27T02:26:51.207Z,154.87
2023-10-27T02:29:21.385Z,150.33
2023-10-27T02:31:49.359Z,138.23
2023-10-27T02:34:18.826Z,146.07
2023-10-27T02:36:46.792Z,156.93
2023-10-27T02:39:14.742Z,140.67
2023-10-27T02:41:41.686Z,168.57
2023-10-27T02:44:10.575Z,163.27
2023-10-27T02:46:38.738Z,140.57
2023-10-27T02:49:06.826Z,149.27
2023-10-27T02:51:36.131Z,138.10
2023-10-27T02:54:04.898Z,156.93
2023-10-27T02:56:32.992Z,145.90
2023-10-27T02:59:00.991Z,166.23
2023-10-27T03:01:28.963Z,140.27
2023-10-27T03:03:57.051Z,181.93
2023-10-27T03:06:25.047Z,161.27
2023-10-27T03:08:54.379Z,157.17
2023-10-27T03:11:22.581Z,154.97
2023-10-27T03:13:50.561Z,161.30
2023-10-27T03:16:18.518Z,145.53
2023-10-27T03:18:46.616Z,143.17
2023-10-27T03:21:14.591Z,170.13
2023-10-27T03:23:42.914Z,165.40
2023-10-27T03:26:12.286Z,149.60
2023-10-27T03:28:43.099Z,144.90
2023-10-27T03:31:14.399Z,133.27
2023-10-27T03:33:42.561Z,128.57
2023-10-27T03:36:10.787Z,139.20
2023-10-27T03:38:38.744Z,163.23
2023-10-27T03:41:06.790Z,140.00
2023-10-27T03:43:36.604Z,180.43
2023-10-27T03:46:05.097Z,134.07
2023-10-27T03:48:33.219Z,145.77
2023-10-27T03:51:04.957Z,102.87
2023-10-27T03:53:32.919Z,139.37
2023-10-27T03:56:00.987Z,119.77
2023-10-27T03:58:40.495Z,110.30
2023-10-27T04:01:17.235Z,126.00
2023-10-27T04:03:45.194Z,132.10
2023-10-27T04:06:13.641Z,139.67
2023-10-27T04:08:41.621Z,129.97
2023-10-27T04:11:09.604Z,123.07
2023-10-27T04:13:37.523Z,111.60
2023-10-27T04:16:06.083Z,116.27
2023-10-27T04:18:35.388Z,111.00
2023-10-27T04:21:04.305Z,98.57
2023-10-27T04:23:32.449Z,107.27
2023-10-27T04:26:00.605Z,109.13
2023-10-27T04:28:28.689Z,115.70
2023-10-27T04:30:56.751Z,98.73
2023-10-27T04:33:26.240Z,106.60
2023-10-27T04:35:55.740Z,99.13
2023-10-27T04:38:23.719Z,111.30
2023-10-27T04:40:52.833Z,109.40
2023-10-27T04:43:22.305Z,89.73
2023-10-27T04:45:50.336Z,111.60
2023-10-27T04:48:18.520Z,125.73
2023-10-27T04:50:46.507Z,109.80
2023-10-27T04:53:15.770Z,111.03
2023-10-27T04:55:43.751Z,100.73
2023-10-27T04:58:11.690Z,121.03
2023-10-27T05:00:39.693Z,97.10
2023-10-27T05:03:09.098Z,91.20
2023-10-27T05:05:37.183Z,103.43
2023-10-27T05:08:06.493Z,87.83
2023-10-27T05:10:37.136Z,98.10
2023-10-27T05:13:05.572Z,81.87
2023-10-27T05:15:33.552Z,81.30
2023-10-27T05:18:05.686Z,89.93
2023-10-27T05:20:38.532Z,100.30
2023-10-27T05:23:06.580Z,98.93
2023-10-27T05:25:36.799Z,93.20
2023-10-27T05:28:05.005Z,90.63
2023-10-27T05:30:35.511Z,110.50
2023-10-27T05:33:03.917Z,83.60
2023-10-27T05:35:32.033Z,88.60
2023-10-27T05:37:59.958Z,87.20
2023-10-27T05:40:32.869Z,82.10
2023-10-27T05:43:02.489Z,72.63
2023-10-27T05:45:30.449Z,90.13
2023-10-27T05:47:58.376Z,90.97
2023-10-27T05:50:26.435Z,82.63
2023-10-27T05:52:54.415Z,84.10
2023-10-27T05:55:22.416Z,85.03
2023-10-27T05:57:50.316Z,69.23
2023-10-27T06:00:20.292Z,104.20
2023-10-27T06:02:49.644Z,79.50
2023-10-27T06:05:17.969Z,85.30
2023-10-27T06:07:45.911Z,83.23
2023-10-27T06:10:14.066Z,79.97
2023-10-27T06:12:42.367Z,97.97
2023-10-27T06:15:10.905Z,86.83
2023-10-27T06:17:40.298Z,91.37
2023-10-27T06:20:18.090Z,81.83
2023-10-27T06:22:47.053Z,90.43
2023-10-27T06:25:15.005Z,71.10
2023-10-27T06:27:42.989Z,100.87
2023-10-27T06:30:11.592Z,93.17
2023-10-27T06:32:40.964Z,87.67
2023-10-27T06:35:09.606Z,87.87
2023-10-27T06:37:37.593Z,90.57
2023-10-27T06:40:06.778Z,87.23
2023-10-27T06:42:35.082Z,79.33
2023-10-27T06:45:04.765Z,91.57
2023-10-27T06:47:32.805Z,95.50
2023-10-27T06:50:04.137Z,88.00
2023-10-27T06:52:32.716Z,99.03
2023-10-27T06:55:00.979Z,93.87
2023-10-27T06:57:29.640Z,102.23
2023-10-27T06:59:58.060Z,90.70
2023-10-27T07:02:26.079Z,105.53
2023-10-27T07:04:54.469Z,95.77
2023-10-27T07:07:28.486Z,89.13
2023-10-27T07:09:57.374Z,90.60
2023-10-27T07:12:25.364Z,82.77
2023-10-27T07:14:53.343Z,95.90
2023-10-27T07:17:21.388Z,85.43
2023-10-27T07:19:49.724Z,73.83
2023-10-27T07:22:20.538Z,85.97
2023-10-27T07:24:49.954Z,86.63
2023-10-27T07:27:17.876Z,73.93
2023-10-27T07:29:47.924Z,75.27
2023-10-27T07:32:15.904Z,77.33
2023-10-27T07:34:44.030Z,66.10
2023-10-27T07:37:12.314Z,79.97
2023-10-27T07:39:40.311Z,59.37
2023-10-27T07:42:10.563Z,65.20
2023-10-27T07:44:38.586Z,56.97
2023-10-27T07:47:06.896Z,62.83
2023-10-27T07:49:35.105Z,60.57
2023-10-27T07:52:04.444Z,55.20
2023-10-27T07:54:32.836Z,64.67
2023-10-27T07:57:00.850Z,61.90
2023-10-27T07:59:30.287Z,59.83
2023-10-27T08:02:00.953Z,58.93
2023-10-27T08:04:29.470Z,58.03
2023-10-27T08:06:57.702Z,54.13
2023-10-27T08:09:25.667Z,54.83
2023-10-27T08:11:54.493Z,51.97
2023-10-27T08:14:22.429Z,48.37
2023-10-27T08:16:52.063Z,48.37
2023-10-27T08:19:20.110Z,52.47
2023-10-27T08:21:49.813Z,64.67
2023-10-27T08:24:18.411Z,55.97
2023-10-27T08:26:46.324Z,50.20
2023-10-27T08:29:14.306Z,49.57
2023-10-27T08:31:42.244Z,53.17
2023-10-27T08:34:13.156Z,53.77
2023-10-27T08:36:41.547Z,53.03
2023-10-27T08:39:09.654Z,46.27
2023-10-27T08:41:39.889Z,46.30
2023-10-27T08:44:25.072Z,44.27
2023-10-27T08:46:54.680Z,44.07
2023-10-27T08:49:24.322Z,42.13
2023-10-27T08:51:52.264Z,45.00
2023-10-27T08:54:21.087Z,43.13
2023-10-27T08:56:49.178Z,41.40
2023-10-27T08:59:17.203Z,40.07
2023-10-27T09:01:46.506Z,35.70
2023-10-27T09:04:16.287Z,37.43
2023-10-27T09:06:45.675Z,34.70
2023-10-27T09:09:13.687Z,37.40
2023-10-27T09:11:43.332Z,35.63
2023-10-27T09:14:21.521Z,37.43
2023-10-27T09:16:49.609Z,35.43
2023-10-27T09:19:21.787Z,34.57
2023-10-27T09:21:51.309Z,31.93
2023-10-27T09:24:23.992Z,37.40
2023-10-27T09:26:51.964Z,36.03
2023-10-27T09:29:20.141Z,39.63
2023-10-27T09:31:48.348Z,45.37
2023-10-27T09:34:20.770Z,39.43
2023-10-27T09:36:51.029Z,28.53
2023-10-27T09:39:21.432Z,30.47
2023-10-27T09:41:53.980Z,34.77
2023-10-27T09:44:24.746Z,22.83
2023-10-27T09:46:55.053Z,22.30
2023-10-27T09:49:30.370Z,21.97
2023-10-27T09:52:01.839Z,26.87
2023-10-27T09:54:32.585Z,29.13
2023-10-27T09:57:02.096Z,29.07
2023-10-27T09:59:34.973Z,32.60
2023-10-27T10:02:06.297Z,34.10
2023-10-27T10:05:01.854Z,31.00
2023-10-27T10:07:32.839Z,29.90
2023-10-27T10:10:17.508Z,26.03
2023-10-27T10:13:05.665Z,28.97
2023-10-27T10:15:34.862Z,25.17
2023-10-27T10:18:03.556Z,27.73
2023-10-27T10:21:00.408Z,28.43
2023-10-27T10:24:01.369Z,24.93
2023-10-27T10:27:03.400Z,27.93
2023-10-27T10:29:36.190Z,20.20
2023-10-27T10:32:33.752Z,22.47
2023-10-27T10:35:24.585Z,24.33
2023-10-27T10:37:56.256Z,20.73
2023-10-27T10:40:27.922Z,21.40
2023-10-27T10:43:21.826Z,23.53
2023-10-27T10:45:52.430Z,22.63
2023-10-27T10:48:21.245Z,19.40
2023-10-27T10:50:49.963Z,19.30
2023-10-27T10:53:19.008Z,21.93
2023-10-27T10:55:47.557Z,24.93
2023-10-27T10:58:23.432Z,21.13
2023-10-27T11:00:53.274Z,20.77
2023-10-27T11:03:23.418Z,18.87
2023-10-27T11:05:55.965Z,19.50
2023-10-27T11:08:26.784Z,18.13
2023-10-27T11:11:05.509Z,18.07
2023-10-27T11:13:36.708Z,19.37
2023-10-27T11:16:14.854Z,19.33
2023-10-27T11:18:43.302Z,19.50
2023-10-27T11:21:16.722Z,16.77
2023-10-27T11:23:44.977Z,18.10
2023-10-27T11:26:13.004Z,17.90
2023-10-27T11:28:42.138Z,15.97
2023-10-27T11:31:13.835Z,19.33
2023-10-27T11:33:58.479Z,16.33
2023-10-27T11:36:26.738Z,13.93
2023-10-27T11:38:55.121Z,15.17
2023-10-27T11:41:23.543Z,14.83
2023-10-27T11:43:51.522Z,11.90
2023-10-27T11:46:21.904Z,13.00
2023-10-27T11:48:50.405Z,11.67
2023-10-27T11:51:18.378Z,13.37
2023-10-27T11:53:47.402Z,14.37
2023-10-27T11:56:16.035Z,13.37
2023-10-27T11:58:43.961Z,13.83
2023-10-27T12:01:12.033Z,12.40
2023-10-27T12:03:41.721Z,12.00
2023-10-27T12:06:09.748Z,14.70
2023-10-27T12:08:37.755Z,17.77
2023-10-27T12:11:05.991Z,14.30
2023-10-27T12:13:34.143Z,12.83
2023-10-27T12:16:02.251Z,12.33
2023-10-27T12:18:33.001Z,12.63
2023-10-27T12:21:03.192Z,12.00
2023-10-27T12:23:33.460Z,12.57
2023-10-27T12:26:02.193Z,14.60
2023-10-27T12:28:30.567Z,13.83
2023-10-27T12:31:01.202Z,12.77
2023-10-27T12:33:29.241Z,14.43
2023-10-27T12:35:57.186Z,13.57
2023-10-27T12:38:27.944Z,15.33
2023-10-27T12:40:58.048Z,14.43
2023-10-27T12:43:25.984Z,16.57
2023-10-27T12:45:53.979Z,13.83
2023-10-27T12:48:22.155Z,14.17
2023-10-27T12:50:50.103Z,15.27
2023-10-27T12:53:19.311Z,15.17
2023-10-27T12:55:49.106Z,13.70
2023-10-27T12:58:17.108Z,13.13
2023-10-27T13:00:45.729Z,15.43
2023-10-27T13:03:14.464Z,13.40
2023-10-27T13:05:42.524Z,13.37
2023-10-27T13:08:11.218Z,15.00
2023-10-27T13:10:39.410Z,12.90
2023-10-27T13:13:11.026Z,15.80
2023-10-27T13:15:39.423Z,15.97
2023-10-27T13:18:08.093Z,12.40
2023-10-27T13:20:36.469Z,12.53
2023-10-27T13:23:05.069Z,13.47
2023-10-27T13:25:33.023Z,16.90
2023-10-27T13:28:01.187Z,13.17
2023-10-27T13:30:30.528Z,14.33
2023-10-27T13:32:58.861Z,21.13
2023-10-27T13:35:26.987Z,15.07
2023-10-27T13:38:04.689Z,16.10
2023-10-27T13:40:36.250Z,14.07
2023-10-27T13:43:04.256Z,15.37
2023-10-27T13:45:33.996Z,17.67
2023-10-27T13:48:02.031Z,15.93
2023-10-27T13:50:30.134Z,15.23
2023-10-27T13:52:58.800Z,60.40
2023-10-27T13:55:26.968Z,54.60
2023-10-27T13:57:56.444Z,38.43
2023-10-27T14:00:27.442Z,22.97
2023-10-27T14:02:57.921Z,20.70
2023-10-27T14:05:26.292Z,21.70
2023-10-27T14:07:54.417Z,21.63
2023-10-27T14:10:22.497Z,21.77
2023-10-27T14:12:50.944Z,22.43
2023-10-27T14:15:22.514Z,17.63
2023-10-27T14:17:51.052Z,19.00
2023-10-27T14:20:21.434Z,16.50
2023-10-27T14:22:49.406Z,21.07
2023-10-27T14:25:17.562Z,16.67
2023-10-27T14:27:48.714Z,17.20
2023-10-27T14:30:16.777Z,23.10
2023-10-27T14:32:44.712Z,27.10
2023-10-27T14:35:17.279Z,30.57
2023-10-27T14:37:47.948Z,22.30
2023-10-27T14:40:16.052Z,17.77
2023-10-27T14:42:43.999Z,22.20
2023-10-27T14:45:12.772Z,19.03
2023-10-27T14:47:44.243Z,18.53
2023-10-27T14:50:13.635Z,16.80
2023-10-27T14:52:43.620Z,17.97
2023-10-27T14:55:15.598Z,15.93
2023-10-27T14:57:43.919Z,18.87
2023-10-27T15:00:13.967Z,15.83
2023-10-27T15:02:42.049Z,19.13
2023-10-27T15:05:11.667Z,17.33
2023-10-27T15:07:39.745Z,19.53
2023-10-27T15:10:16.005Z,17.73
2023-10-27T15:12:45.653Z,16.43
2023-10-27T15:15:13.761Z,16.43
2023-10-27T15:17:41.787Z,18.23
2023-10-27T15:20:11.268Z,17.93
2023-10-27T15:22:41.641Z,15.30
2023-10-27T15:25:10.011Z,21.03
2023-10-27T15:27:39.030Z,17.57
2023-10-27T15:30:10.102Z,18.97
2023-10-27T15:32:38.676Z,16.63
2023-10-27T15:35:07.804Z,19.80
2023-10-27T15:37:36.938Z,19.20
2023-10-27T15:40:13.662Z,19.73
2023-10-27T15:42:41.874Z,20.43
2023-10-27T15:45:11.655Z,16.50
2023-10-27T15:47:42.007Z,18.73
2023-10-27T15:50:13.154Z,19.07
2023-10-27T15:52:41.095Z,19.47
2023-10-27T15:55:09.639Z,19.47
2023-10-27T15:57:37.563Z,17.63
2023-10-27T16:00:10.981Z,16.87
2023-10-27T16:02:40.752Z,20.93
2023-10-27T16:05:09.660Z,18.60
2023-10-27T16:07:38.036Z,19.53
2023-10-27T16:10:11.590Z,19.90
2023-10-27T16:12:39.646Z,16.97
2023-10-27T16:15:08.397Z,18.37
2023-10-27T16:17:36.861Z,19.10
2023-10-27T16:20:07.582Z,19.80
2023-10-27T16:22:38.137Z,18.60
2023-10-27T16:25:08.154Z,21.33
2023-10-27T16:27:37.485Z,20.83
2023-10-27T16:30:06.541Z,21.40
2023-10-27T16:32:34.941Z,19.83
2023-10-27T16:35:04.341Z,21.00
2023-10-27T16:37:33.648Z,19.30
2023-10-27T16:40:01.814Z,20.37
2023-10-27T16:42:29.784Z,19.73
2023-10-27T16:44:57.754Z,20.07
2023-10-27T16:47:25.678Z,24.10
2023-10-27T16:49:55.904Z,22.93
2023-10-27T16:52:24.948Z,22.07
2023-10-27T16:54:54.603Z,20.07
2023-10-27T16:57:22.930Z,20.00
2023-10-27T16:59:51.140Z,19.30
2023-10-27T17:02:21.125Z,19.10
2023-10-27T17:04:49.169Z,20.00
2023-10-27T17:07:17.295Z,20.27
2023-10-27T17:09:51.454Z,19.80
2023-10-27T17:12:21.397Z,22.87
2023-10-27T17:14:50.001Z,27.80
2023-10-27T17:17:18.052Z,24.40
2023-10-27T17:19:46.479Z,24.23
2023-10-27T17:22:15.216Z,20.97
2023-10-27T17:24:45.005Z,21.03
2023-10-27T17:27:13.017Z,24.63
2023-10-27T17:29:42.633Z,23.57
2023-10-27T17:32:12.185Z,23.37
2023-10-27T17:34:40.146Z,19.60
2023-10-27T17:37:08.137Z,24.67
2023-10-27T17:39:37.795Z,24.60
2023-10-27T17:42:06.471Z,24.70
2023-10-27T17:44:35.934Z,25.63
2023-10-27T17:47:05.648Z,25.63
2023-10-27T17:49:33.696Z,25.53
2023-10-27T17:52:02.910Z,23.43
2023-10-27T17:54:34.261Z,27.47
2023-10-27T17:57:02.301Z,25.70
2023-10-27T17:59:31.136Z,28.00
2023-10-27T18:01:59.268Z,26.63
2023-10-27T18:04:28.667Z,27.10
2023-10-27T18:06:56.723Z,26.30
2023-10-27T18:09:24.657Z,29.40
2023-10-27T18:11:53.502Z,30.17
2023-10-27T18:14:23.348Z,37.00
2023-10-27T18:16:51.768Z,34.20
2023-10-27T18:19:19.988Z,36.60
2023-10-27T18:21:49.427Z,32.90
2023-10-27T18:24:17.379Z,30.67
2023-10-27T18:26:45.432Z,39.53
2023-10-27T18:29:13.415Z,37.33
2023-10-27T18:31:41.462Z,35.57
2023-10-27T18:34:09.437Z,40.33
2023-10-27T18:36:37.448Z,37.83
2023-10-27T18:39:06.763Z,48.37
2023-10-27T18:41:36.532Z,54.57
2023-10-27T18:44:06.070Z,64.57
2023-10-27T18:46:34.011Z,45.23
2023-10-27T18:49:01.984Z,39.67
2023-10-27T18:51:29.999Z,41.80
2023-10-27T18:53:57.924Z,33.87
2023-10-27T18:56:27.270Z,50.23
2023-10-27T18:58:55.544Z,41.77
2023-10-27T19:01:23.577Z,47.33
2023-10-27T19:03:51.600Z,42.37
2023-10-27T19:06:20.993Z,50.77
2023-10-27T19:08:50.496Z,48.90
2023-10-27T19:11:19.467Z,44.13
2023-10-27T19:13:49.101Z,38.93
2023-10-27T19:16:18.148Z,44.90
2023-10-27T19:18:47.886Z,45.87
2023-10-27T19:21:17.998Z,41.10
2023-10-27T19:23:48.342Z,37.80
2023-10-27T19:26:17.638Z,50.33
2023-10-27T19:28:47.431Z,44.17
2023-10-27T19:31:18.412Z,45.80
2023-10-27T19:33:48.929Z,43.27
2023-10-27T19:36:17.768Z,52.97
2023-10-27T19:38:45.853Z,39.47
2023-10-27T19:41:13.878Z,36.00
2023-10-27T19:43:42.401Z,40.73
2023-10-27T19:46:11.052Z,42.43
2023-10-27T19:48:41.370Z,49.00
2023-10-27T19:51:10.029Z,41.10
2023-10-27T19:53:38.130Z,44.33
2023-10-27T19:56:07.142Z,41.43
2023-10-27T19:58:35.109Z,35.93
2023-10-27T20:01:11.487Z,38.47
2023-10-27T20:03:41.141Z,46.70
2023-10-27T20:06:09.516Z,43.23
2023-10-27T20:08:39.058Z,45.53
2023-10-27T20:11:10.276Z,35.97
2023-10-27T20:13:38.639Z,39.53
2023-10-27T20:16:08.457Z,30.00
2023-10-27T20:18:36.629Z,38.70
2023-10-27T20:21:10.058Z,34.13
2023-10-27T20:23:38.584Z,32.83
2023-10-27T20:26:08.077Z,39.50
2023-10-27T20:28:36.584Z,39.93
2023-10-27T20:31:06.834Z,31.20
2023-10-27T20:33:36.572Z,37.47
2023-10-27T20:36:07.308Z,40.47
2023-10-27T20:38:35.499Z,39.07
2023-10-27T20:41:03.489Z,34.97
2023-10-27T20:43:31.445Z,43.33
2023-10-27T20:46:03.981Z,46.17
2023-10-27T20:48:32.275Z,39.00
2023-10-27T20:51:05.020Z,32.70
2023-10-27T20:53:33.154Z,32.63
2023-10-27T20:56:01.414Z,39.30
2023-10-27T20:58:29.691Z,40.33
2023-10-27T21:00:58.000Z,40.00
2023-10-27T21:03:26.074Z,37.20
2023-10-27T21:05:54.665Z,38.40
2023-10-27T21:08:24.158Z,32.97
2023-10-27T21:10:53.269Z,31.23
2023-10-27T21:13:21.356Z,29.23
2023-10-27T21:15:49.760Z,42.83
2023-10-27T21:18:20.246Z,43.30
2023-10-27T21:20:48.281Z,36.17
2023-10-27T21:23:16.861Z,40.80
2023-10-27T21:25:46.363Z,40.77
2023-10-27T21:28:14.498Z,41.00
2023-10-27T21:30:42.674Z,51.50
2023-10-27T21:33:12.428Z,36.37
2023-10-27T21:35:40.551Z,41.80
2023-10-27T21:38:08.728Z,57.77
2023-10-27T21:40:36.735Z,43.43
2023-10-27T21:43:06.222Z,39.57
2023-10-27T21:45:34.241Z,47.40
2023-10-27T21:48:04.202Z,39.30
2023-10-27T21:50:32.530Z,35.50
2023-10-27T21:53:01.589Z,38.23
2023-10-27T21:55:29.751Z,36.97
2023-10-27T21:57:57.795Z,45.07
2023-10-27T22:00:32.652Z,42.00
2023-10-27T22:03:02.063Z,43.80
2023-10-27T22:05:31.653Z,38.17
2023-10-27T22:07:59.912Z,49.47
2023-10-27T22:10:27.991Z,44.43
2023-10-27T22:12:55.986Z,45.50
2023-10-27T22:15:24.778Z,38.27
2023-10-27T22:17:54.301Z,32.73
2023-10-27T22:20:22.892Z,34.87
2023-10-27T22:22:51.586Z,46.33
2023-10-27T22:25:20.226Z,41.87
2023-10-27T22:27:53.940Z,48.00
2023-10-27T22:30:27.123Z,34.87
2023-10-27T22:32:56.619Z,42.73
2023-10-27T22:35:24.767Z,35.67
2023-10-27T22:37:52.887Z,38.03
2023-10-27T22:40:21.069Z,39.93
2023-10-27T22:42:49.205Z,40.23
2023-10-27T22:45:17.458Z,37.03
2023-10-27T22:47:48.949Z,36.53
2023-10-27T22:50:18.556Z,42.50
2023-10-27T22:52:46.737Z,43.47
2023-10-27T22:55:14.857Z,34.60
2023-10-27T22:57:43.439Z,35.23
2023-10-27T23:00:12.636Z,38.13
2023-10-27T23:02:41.043Z,44.10
2023-10-27T23:05:09.577Z,37.33
2023-10-27T23:07:40.647Z,34.27
2023-10-27T23:10:10.787Z,34.93
2023-10-27T23:12:40.745Z,40.90
2023-10-27T23:15:11.832Z,42.00
2023-10-27T23:17:40.169Z,44.43
2023-10-27T23:20:13.471Z,34.87
2023-10-27T23:22:43.041Z,40.53
2023-10-27T23:25:11.255Z,41.47
2023-10-27T23:27:41.542Z,44.57
2023-10-27T23:30:10.886Z,38.50
2023-10-27T23:32:38.877Z,44.07
2023-10-27T23:35:08.720Z,46.73
2023-10-27T23:37:37.645Z,32.77
2023-10-27T23:40:09.615Z,32.27
2023-10-27T23:42:37.662Z,31.87
2023-10-27T23:45:06.384Z,31.37
2023-10-27T23:47:34.408Z,41.67
2023-10-27T23:50:02.614Z,40.17
2023-10-27T23:52:30.691Z,41.47
2023-10-27T23:54:58.702Z,34.37
2023-10-27T23:57:28.123Z,39.50
2023-10-27T23:59:57.957Z,33.33
